Decoded Metar for UKDR (KRIVYY RIH in UKRAINE) (IATA:N/A) | Meteo·Mobile Aviation Weather
aviador You're here:

UKDR Decoded Metar

KRIVYY RIH in UKRAINE
Report Time2018-09-18 13:00:00
UTC Time2018-09-18 13:13:19
Flight Rules vfr VFR
Wind310° at 4 kt
W.Decomp.*RWY 36: 2.4 kt HW 3.2 kt LCW
W.Rank310° ranks 14
Current wind is below 310° avg. (8.2)
Visibility9999 m
Phenomena:N/A
Clouds:N/A
Expected CloudBase > 8,000 ft AGL from Temp-Dew spread
CeilingNone
Temp24°C (ISA +10)
Dew Point04°C (27% RH)
AAT21.2°C
QNH1023 hPa
Density Alt1,325 ft
Elevation407 ft
Report Wrong Elevation
Raw Report
UKDR 181300Z 31002MPS 260V340 CAVOK 24/04 Q1023 R36/09//70
NOSIG=

Extra information for UKDR:More info

Metar Taf Metar & Taf Last 4 Metars F.Rules Stats Wind Profile Meteogram Temp Stats Airport Information Weather charts Add Link Nearby VenuesMetar ALERT Operation Metar Decoded Social comments